Time;durP1;ratioP1;P1;durP2;ratioP2;P2;SDS_P1;SDS_P2;PMS_P1;PMS_P2;Temp;Humidity;BMP_temperature;BMP_pressure;BME280_temperature;BME280_humidity;BME280_pressure;Samples;Min_cycle;Max_cycle;Signal;HPM_P1;HPM_P2
2022/12/01 00:02:07;;;;;;;62.00;26.77;;;5.40;99.90;;;;;;5095516;28;20052;-81
2022/12/01 00:04:33;;;;;;;59.83;26.35;;;5.40;99.90;;;;;;5077899;28;20127;-81
2022/12/01 00:06:58;;;;;;;61.20;27.23;;;6.10;99.90;;;;;;5095452;28;20083;-80
2022/12/01 00:12:08;;;;;;;58.72;27.40;;;5.40;99.90;;;;;;5094150;28;20484;-81
2022/12/01 00:14:33;;;;;;;62.92;26.13;;;5.40;99.90;;;;;;5095301;28;20051;-81
2022/12/01 00:16:59;;;;;;;56.88;26.75;;;5.40;99.90;;;;;;5095222;28;20040;-81
2022/12/01 00:19:26;;;;;;;59.15;26.77;;;5.50;99.90;;;;;;5095405;28;20044;-81
2022/12/01 00:21:51;;;;;;;59.72;26.58;;;5.40;99.90;;;;;;5094216;28;20075;-81
2022/12/01 00:24:17;;;;;;;52.47;25.92;;;5.50;99.90;;;;;;5094959;28;20044;-81
2022/12/01 00:26:43;;;;;;;57.03;26.10;;;5.50;99.90;;;;;;5094875;28;20048;-81
2022/12/01 00:29:08;;;;;;;57.10;26.85;;;5.50;99.90;;;;;;5094766;28;20055;-81
2022/12/01 00:31:34;;;;;;;61.13;27.60;;;5.50;99.90;;;;;;5094834;28;20047;-81
2022/12/01 00:34:00;;;;;;;67.70;28.27;;;5.40;99.90;;;;;;5093792;28;20043;-81
2022/12/01 00:36:26;;;;;;;55.83;26.83;;;5.40;99.90;;;;;;5094851;28;20040;-80
2022/12/01 00:38:56;;;;;;;63.90;28.27;;;5.50;99.90;;;;;;5093864;28;20538;-81
2022/12/01 00:41:22;;;;;;;65.85;28.13;;;5.50;99.90;;;;;;5094653;28;20105;-81
2022/12/01 00:43:48;;;;;;;68.50;28.48;;;5.80;99.90;;;;;;5094850;28;20385;-80
2022/12/01 00:46:13;;;;;;;64.43;25.85;;;5.50;99.90;;;;;;5094782;28;20129;-81
2022/12/01 00:48:39;;;;;;;62.60;27.48;;;5.40;99.90;;;;;;5094739;28;20054;-81
2022/12/01 00:51:05;;;;;;;60.38;26.27;;;5.50;99.90;;;;;;5093718;28;20135;-81
2022/12/01 00:53:30;;;;;;;69.20;27.25;;;5.50;99.90;;;;;;5094675;28;20498;-81
2022/12/01 00:55:56;;;;;;;63.08;27.83;;;5.50;99.90;;;;;;5094528;28;20048;-80
2022/12/01 00:58:23;;;;;;;71.85;29.90;;;5.50;99.90;;;;;;5093775;28;20052;-80
2022/12/01 01:00:55;;;;;;;65.75;27.83;;;5.50;99.90;;;;;;5094266;28;20498;-81
2022/12/01 01:03:21;;;;;;;65.50;28.73;;;5.40;99.90;;;;;;5094669;28;20096;-81
2022/12/01 01:05:47;;;;;;;70.07;28.92;;;5.60;99.90;;;;;;5093198;28;20126;-81
2022/12/01 01:08:13;;;;;;;76.80;29.42;;;5.50;99.90;;;;;;5094426;28;20048;-81
2022/12/01 01:10:45;;;;;;;72.00;28.77;;;5.40;99.90;;;;;;5095156;28;20518;-80
2022/12/01 01:13:12;;;;;;;80.13;30.27;;;5.50;99.90;;;;;;5094632;28;20040;-81
2022/12/01 01:15:37;;;;;;;;;;;5.50;99.90;;;;;;5094626;28;20040;-81
2022/12/01 01:18:04;;;;;;;81.03;30.35;;;5.40;99.90;;;;;;5094044;28;19927;-81
2022/12/01 01:20:30;;;;;;;81.30;30.50;;;5.50;99.90;;;;;;5094141;28;20446;-82
2022/12/01 01:22:55;;;;;;;77.03;28.45;;;5.40;99.90;;;;;;5094094;28;20044;-81
2022/12/01 01:25:21;;;;;;;80.70;30.95;;;5.50;99.90;;;;;;5092801;28;20093;-80
2022/12/01 01:27:47;;;;;;;78.78;30.02;;;5.50;99.90;;;;;;5093863;28;20052;-81
2022/12/01 01:30:13;;;;;;;87.80;30.98;;;5.50;99.90;;;;;;5092805;28;20040;-81
2022/12/01 01:32:39;;;;;;;77.60;30.80;;;5.50;99.90;;;;;;5093194;28;20102;-81
2022/12/01 01:35:05;;;;;;;86.50;31.42;;;5.50;99.90;;;;;;5093790;28;20551;-80
2022/12/01 01:37:30;;;;;;;78.70;30.13;;;5.40;99.90;;;;;;5092585;28;20090;-81
2022/12/01 01:39:56;;;;;;;96.03;32.20;;;5.50;99.90;;;;;;5092690;28;20052;-81
2022/12/01 01:42:21;;;;;;;96.45;31.42;;;5.50;99.90;;;;;;5093759;28;20052;-81
2022/12/01 01:44:53;;;;;;;93.22;32.50;;;5.50;99.90;;;;;;5093738;28;20145;-81
2022/12/01 01:47:37;;;;;;;87.88;31.13;;;5.50;99.90;;;;;;5092493;28;20488;-81
2022/12/01 01:50:14;;;;;;;94.75;33.55;;;5.50;99.90;;;;;;5093775;28;20048;-81
2022/12/01 01:52:44;;;;;;;92.32;32.10;;;5.50;99.90;;;;;;5092848;28;20047;-81
2022/12/01 01:55:11;;;;;;;98.75;31.83;;;5.00;99.90;;;;;;5094126;28;20040;-81
2022/12/01 01:57:37;;;;;;;93.07;33.63;;;5.90;99.90;;;;;;5093670;28;20048;-81
2022/12/01 02:00:09;;;;;;;88.95;30.45;;;5.40;99.90;;;;;;5094009;28;20495;-80
2022/12/01 02:02:43;;;;;;;94.20;33.50;;;5.40;99.90;;;;;;5093570;28;20131;-81
2022/12/01 02:05:13;;;;;;;94.32;32.08;;;5.40;99.90;;;;;;5093735;28;20101;-81
2022/12/01 02:07:40;;;;;;;93.28;31.45;;;5.40;99.90;;;;;;5093432;28;20044;-81
2022/12/01 02:10:07;;;;;;;92.50;33.50;;;5.40;99.90;;;;;;5092469;28;20381;-80
2022/12/01 02:12:35;;;;;;;88.63;31.60;;;5.40;99.90;;;;;;5094167;28;20048;-79
2022/12/01 02:15:37;;;;;;;107.05;35.55;;;5.40;99.90;;;;;;5094283;28;20047;-80
2022/12/01 02:18:21;;;;;;;109.43;34.38;;;5.40;99.90;;;;;;5093977;28;20055;-80
2022/12/01 02:21:17;;;;;;;96.63;33.30;;;5.40;99.90;;;;;;5093791;28;20127;-81
2022/12/01 02:24:09;;;;;;;95.97;33.00;;;5.40;99.90;;;;;;5092764;28;20055;-81
2022/12/01 02:27:03;;;;;;;95.85;33.67;;;5.50;99.90;;;;;;5093767;28;20051;-81
2022/12/01 02:30:13;;;;;;;106.22;34.65;;;5.40;99.90;;;;;;5093497;28;20056;-81
2022/12/01 02:32:41;;;;;;;;;;;5.40;99.90;;;;;;5055350;28;20541;-81
2022/12/01 02:35:12;;;;;;;;;;;5.40;99.90;;;;;;5093741;28;20276;-80
2022/12/01 02:37:37;;;;;;;96.72;33.35;;;5.40;99.90;;;;;;5093304;28;20323;-81
2022/12/01 02:40:12;;;;;;;96.47;33.85;;;5.40;99.90;;;;;;5093229;28;20090;-80
2022/12/01 02:42:50;;;;;;;96.72;35.53;;;5.40;99.90;;;;;;5093231;28;20076;-81
2022/12/01 02:45:25;;;;;;;94.22;34.03;;;5.40;99.90;;;;;;5093683;28;20140;-81
2022/12/01 02:47:54;;;;;;;99.80;34.47;;;5.40;99.90;;;;;;5093601;28;20044;-80
2022/12/01 02:50:22;;;;;;;98.55;33.88;;;5.40;99.90;;;;;;5093229;28;20123;-81
2022/12/01 02:52:48;;;;;;;112.43;35.65;;;5.40;99.90;;;;;;5093272;28;20048;-80
2022/12/01 02:55:14;;;;;;;101.80;34.38;;;5.40;99.90;;;;;;5093041;28;20438;-80
2022/12/01 02:57:39;;;;;;;92.30;32.30;;;5.90;99.90;;;;;;5093013;28;20552;-80
2022/12/01 03:00:06;;;;;;;102.53;34.72;;;5.40;99.90;;;;;;5093080;28;20058;-81
2022/12/01 03:02:49;;;;;;;86.47;31.52;;;5.40;99.90;;;;;;5092111;28;20136;-80
2022/12/01 03:05:41;;;;;;;99.88;34.88;;;5.40;99.90;;;;;;5095922;28;20502;-80
2022/12/01 03:08:32;;;;;;;97.40;32.60;;;5.40;99.90;;;;;;5096620;28;20400;-80
2022/12/01 03:10:59;;;;;;;94.70;32.42;;;5.40;99.90;;;;;;5096932;28;20040;-81
2022/12/01 03:13:40;;;;;;;84.70;31.58;;;5.40;99.90;;;;;;5096899;28;20056;-81
2022/12/01 03:16:28;;;;;;;94.28;32.28;;;5.40;99.90;;;;;;5097026;28;20430;-81
2022/12/01 03:19:03;;;;;;;78.93;30.47;;;5.40;99.90;;;;;;5095358;28;20051;-81
2022/12/01 03:21:34;;;;;;;91.35;31.70;;;5.40;99.90;;;;;;5096973;28;20274;-81
2022/12/01 03:24:16;;;;;;;95.72;32.67;;;5.40;99.90;;;;;;5095615;28;20050;-81
2022/12/01 03:26:47;;;;;;;81.47;31.65;;;5.40;99.90;;;;;;5096423;28;20063;-81
2022/12/01 03:29:18;;;;;;;85.88;31.98;;;5.40;99.90;;;;;;5097013;28;20070;-81
2022/12/01 03:31:49;;;;;;;90.18;31.50;;;5.40;99.90;;;;;;5096551;28;20455;-80
2022/12/01 03:34:40;;;;;;;78.90;31.25;;;5.40;99.90;;;;;;5095066;28;20054;-81
2022/12/01 03:37:18;;;;;;;90.55;31.95;;;5.40;99.90;;;;;;5081428;28;20074;-81
2022/12/01 03:39:46;;;;;;;85.93;31.95;;;5.30;99.90;;;;;;5096649;28;20048;-81
2022/12/01 03:42:22;;;;;;;73.80;30.95;;;5.30;99.90;;;;;;5095994;28;20097;-80
2022/12/01 03:44:55;;;;;;;71.15;30.58;;;5.90;99.90;;;;;;5096027;28;20036;-81
2022/12/01 03:47:31;;;;;;;80.75;32.45;;;5.30;99.90;;;;;;5095851;28;20131;-80
2022/12/01 03:49:59;;;;;;;73.05;31.50;;;5.40;99.90;;;;;;5095914;28;20083;-81
2022/12/01 03:52:27;;;;;;;76.70;31.52;;;5.30;99.90;;;;;;5095859;28;20065;-80
2022/12/01 03:54:58;;;;;;;77.18;31.98;;;5.30;99.90;;;;;;5095728;28;20051;-81
2022/12/01 03:57:36;;;;;;;78.15;31.88;;;5.30;99.90;;;;;;5095583;28;20040;-81
2022/12/01 04:00:03;;;;;;;70.15;30.17;;;5.30;99.90;;;;;;5094690;28;20131;-81
2022/12/01 04:02:29;;;;;;;69.65;30.48;;;5.30;99.90;;;;;;5094380;28;20105;-81
2022/12/01 04:04:54;;;;;;;79.68;30.45;;;5.30;99.90;;;;;;5095530;28;20442;-80
2022/12/01 04:07:21;;;;;;;75.07;31.58;;;5.30;99.90;;;;;;5096004;28;20492;-81
2022/12/01 04:09:47;;;;;;;70.88;30.27;;;5.30;99.90;;;;;;5095674;28;20040;-81
2022/12/01 04:12:28;;;;;;;76.63;29.42;;;5.30;99.90;;;;;;5095378;28;20099;-81
2022/12/01 04:14:55;;;;;;;76.78;31.33;;;5.30;99.90;;;;;;5094988;28;20036;-79
2022/12/01 04:17:20;;;;;;;80.25;31.30;;;5.30;99.90;;;;;;5096640;28;20127;-81
2022/12/01 04:19:46;;;;;;;76.40;30.65;;;5.30;99.90;;;;;;5095345;28;20099;-81
2022/12/01 04:22:11;;;;;;;73.35;29.92;;;5.30;99.90;;;;;;5095224;28;20036;-81
2022/12/01 04:24:37;;;;;;;73.43;30.25;;;5.30;99.90;;;;;;5095170;28;20087;-81
2022/12/01 04:27:03;;;;;;;77.70;30.37;;;5.30;99.90;;;;;;5095672;28;20079;-81
2022/12/01 04:29:29;;;;;;;74.93;31.13;;;5.30;99.90;;;;;;5094066;28;20052;-81
2022/12/01 04:31:54;;;;;;;75.78;31.52;;;5.30;99.90;;;;;;5095415;28;20047;-81
2022/12/01 04:34:20;;;;;;;76.85;31.55;;;5.30;99.90;;;;;;5094910;28;20092;-81
2022/12/01 04:36:46;;;;;;;77.35;31.33;;;4.80;99.90;;;;;;5094818;28;20036;-80
2022/12/01 04:39:11;;;;;;;81.93;30.92;;;5.30;99.90;;;;;;5094938;28;20080;-81
2022/12/01 04:41:37;;;;;;;65.57;30.50;;;5.30;99.90;;;;;;5094875;28;20105;-81
2022/12/01 04:44:02;;;;;;;81.65;32.92;;;5.30;99.90;;;;;;5094763;28;20122;-81
2022/12/01 04:46:28;;;;;;;71.72;31.90;;;5.30;99.90;;;;;;5095081;28;20059;-81
2022/12/01 04:48:54;;;;;;;82.38;32.55;;;5.30;99.90;;;;;;5094769;28;20039;-80
2022/12/01 04:51:21;;;;;;;79.35;32.35;;;5.30;99.90;;;;;;5094685;28;20086;-81
2022/12/01 04:53:47;;;;;;;;;;;5.30;99.90;;;;;;5095088;28;20058;-81
2022/12/01 04:56:12;;;;;;;79.10;31.13;;;5.30;99.90;;;;;;5094463;28;20018;-81
2022/12/01 04:58:38;;;;;;;72.20;30.10;;;5.30;99.90;;;;;;5094448;28;20152;-80
2022/12/01 05:01:10;;;;;;;72.82;30.48;;;5.30;99.90;;;;;;5094504;28;20040;-80
2022/12/01 05:03:38;;;;;;;74.82;32.30;;;5.20;99.90;;;;;;5094477;28;20070;-81
2022/12/01 05:06:06;;;;;;;83.10;33.03;;;5.90;99.90;;;;;;5094450;28;20046;-81
2022/12/01 05:08:33;;;;;;;73.15;32.40;;;5.30;99.90;;;;;;5094416;28;20535;-81
2022/12/01 05:10:59;;;;;;;80.15;31.77;;;5.30;99.90;;;;;;5093165;28;20128;-81
2022/12/01 05:13:24;;;;;;;71.50;30.35;;;5.30;99.90;;;;;;5095060;28;20487;-80
2022/12/01 05:15:50;;;;;;;77.57;32.53;;;5.30;99.90;;;;;;5094731;28;20079;-81
2022/12/01 05:18:16;;;;;;;80.68;31.20;;;5.30;99.90;;;;;;5094728;28;20044;-81
2022/12/01 05:20:56;;;;;;;73.47;31.17;;;5.30;99.90;;;;;;5094228;28;20127;-81
2022/12/01 05:23:23;;;;;;;82.22;32.33;;;5.30;99.90;;;;;;5093271;28;20040;-81
2022/12/01 05:25:49;;;;;;;;;;;5.30;99.90;;;;;;5094057;28;20048;-81
2022/12/01 05:28:15;;;;;;;74.22;30.83;;;5.30;99.90;;;;;;5093605;28;19920;-81
2022/12/01 05:30:40;;;;;;;75.60;30.67;;;5.20;99.90;;;;;;5094016;28;20047;-80
2022/12/01 05:33:06;;;;;;;77.60;30.40;;;5.20;99.90;;;;;;5093991;28;20476;-81
2022/12/01 05:35:33;;;;;;;71.00;31.50;;;5.20;99.90;;;;;;5093938;28;20079;-80
2022/12/01 05:37:58;;;;;;;83.05;32.00;;;5.20;99.90;;;;;;5094145;28;20044;-81
2022/12/01 05:40:24;;;;;;;80.22;31.92;;;5.20;99.90;;;;;;5093759;28;20444;-81
2022/12/01 05:42:49;;;;;;;78.95;30.75;;;5.20;99.90;;;;;;5093965;28;20040;-82
2022/12/01 05:45:15;;;;;;;79.60;31.15;;;5.20;99.90;;;;;;5092665;28;20488;-81
2022/12/01 05:47:41;;;;;;;74.28;31.92;;;5.20;99.90;;;;;;5092704;28;20039;-81
2022/12/01 05:50:07;;;;;;;76.72;30.48;;;5.20;99.90;;;;;;5093722;28;20047;-81
2022/12/01 05:52:36;;;;;;;79.85;32.17;;;5.20;99.90;;;;;;5092633;28;20050;-80
2022/12/01 05:55:03;;;;;;;74.00;32.28;;;5.20;99.90;;;;;;5093717;28;20044;-80
2022/12/01 05:57:29;;;;;;;78.43;32.08;;;5.20;99.90;;;;;;5075702;28;20060;-81
2022/12/01 05:59:54;;;;;;;77.72;31.33;;;5.20;99.90;;;;;;5092219;28;20511;-80
2022/12/01 06:02:20;;;;;;;77.63;31.55;;;5.10;99.90;;;;;;5093954;28;20040;-81
2022/12/01 06:04:46;;;;;;;78.78;32.40;;;5.20;99.90;;;;;;5093840;28;20070;-81
2022/12/01 06:07:11;;;;;;;82.65;33.38;;;5.20;99.90;;;;;;5093466;28;20096;-81
2022/12/01 06:09:37;;;;;;;73.38;31.60;;;5.20;99.90;;;;;;5093550;28;20044;-81
2022/12/01 06:12:02;;;;;;;80.32;34.25;;;5.20;99.90;;;;;;5093538;28;20468;-81
2022/12/01 06:14:28;;;;;;;77.10;31.75;;;5.30;99.90;;;;;;5093572;28;20071;-81
2022/12/01 06:16:54;;;;;;;80.45;32.30;;;5.20;99.90;;;;;;5092405;28;20040;-81
2022/12/01 06:19:19;;;;;;;80.03;30.90;;;5.20;99.90;;;;;;5094152;28;20070;-80
2022/12/01 06:21:45;;;;;;;76.47;30.55;;;5.20;99.90;;;;;;5094790;28;20080;-80
2022/12/01 06:24:10;;;;;;;85.60;32.13;;;5.20;99.90;;;;;;5092983;28;20055;-78
2022/12/01 06:26:36;;;;;;;83.53;33.90;;;5.10;99.90;;;;;;5093599;28;20052;-81
2022/12/01 06:29:02;;;;;;;84.05;33.63;;;5.20;99.90;;;;;;5092307;28;20055;-82
2022/12/01 06:31:27;;;;;;;79.03;32.30;;;5.20;99.90;;;;;;5093445;28;20395;-81
2022/12/01 06:33:53;;;;;;;75.20;33.05;;;5.20;99.90;;;;;;5093326;28;20086;-80
2022/12/01 06:36:18;;;;;;;79.40;33.15;;;5.20;99.90;;;;;;5092035;28;20040;-81
2022/12/01 06:38:44;;;;;;;89.35;34.70;;;5.20;99.90;;;;;;5095632;28;20044;-82
2022/12/01 06:41:09;;;;;;;75.00;32.42;;;5.20;99.90;;;;;;5096278;28;20086;-79
2022/12/01 06:43:36;;;;;;;79.15;31.77;;;5.20;99.90;;;;;;5097537;28;20051;-79
2022/12/01 06:46:05;;;;;;;79.22;33.15;;;5.20;99.90;;;;;;5097111;28;20061;-80
2022/12/01 06:48:31;;;;;;;83.28;33.83;;;5.20;99.90;;;;;;5096974;28;20542;-80
2022/12/01 06:50:57;;;;;;;82.38;32.78;;;5.30;99.90;;;;;;5097042;28;20128;-79
2022/12/01 06:53:23;;;;;;;70.07;30.67;;;5.20;99.90;;;;;;5095807;28;20091;-80
2022/12/01 06:55:49;;;;;;;85.57;33.47;;;4.80;99.90;;;;;;5095463;28;20098;-79
2022/12/01 06:58:15;;;;;;;78.78;32.05;;;5.30;99.90;;;;;;5096925;28;20089;-79
2022/12/01 07:00:40;;;;;;;80.65;32.17;;;5.30;99.90;;;;;;5096949;28;20048;-80
2022/12/01 07:03:07;;;;;;;90.35;34.97;;;5.30;99.90;;;;;;5096408;28;20388;-79
2022/12/01 07:05:32;;;;;;;85.35;34.22;;;5.20;99.90;;;;;;5096457;28;20040;-80
2022/12/01 07:07:59;;;;;;;88.90;34.42;;;5.20;99.90;;;;;;5096644;28;20044;-80
2022/12/01 07:10:24;;;;;;;80.78;31.67;;;5.20;99.90;;;;;;5095529;28;20040;-79
2022/12/01 07:12:50;;;;;;;84.63;34.63;;;5.20;99.90;;;;;;5096502;28;20105;-79
2022/12/01 07:15:15;;;;;;;74.72;32.47;;;5.30;99.90;;;;;;5096878;28;20131;-79
2022/12/01 07:17:41;;;;;;;79.25;32.45;;;5.30;99.90;;;;;;5096439;28;20040;-79
2022/12/01 07:20:09;;;;;;;94.30;34.20;;;5.30;99.90;;;;;;5096357;28;20480;-80
2022/12/01 07:22:35;;;;;;;76.35;30.77;;;5.30;99.90;;;;;;5096090;28;20048;-79
2022/12/01 07:25:00;;;;;;;81.93;34.15;;;5.30;99.90;;;;;;5094854;28;20047;-80
2022/12/01 07:27:30;;;;;;;87.68;32.22;;;5.30;99.90;;;;;;5096589;28;20098;-84
2022/12/01 07:29:56;;;;;;;88.55;33.20;;;5.30;99.90;;;;;;5095575;28;20048;-79
2022/12/01 07:32:22;;;;;;;90.03;34.75;;;5.30;99.90;;;;;;5096149;28;20063;-79
2022/12/01 07:34:47;;;;;;;88.43;35.95;;;4.90;99.90;;;;;;5096036;28;20052;-80
2022/12/01 07:37:13;;;;;;;73.80;31.35;;;5.30;99.90;;;;;;5095965;28;20476;-80
2022/12/01 07:39:39;;;;;;;84.63;33.70;;;5.30;99.90;;;;;;5095839;28;20459;-80
2022/12/01 07:42:04;;;;;;;89.25;33.75;;;5.30;99.90;;;;;;5095950;28;20044;-79
2022/12/01 07:44:30;;;;;;;83.88;33.97;;;5.30;99.90;;;;;;5094739;28;20047;-79
2022/12/01 07:46:55;;;;;;;99.63;34.75;;;5.30;99.90;;;;;;5095770;28;20512;-80
2022/12/01 07:49:21;;;;;;;98.60;34.20;;;5.30;99.90;;;;;;5094912;28;20036;-81
2022/12/01 07:51:47;;;;;;;75.75;31.55;;;5.30;99.90;;;;;;5095834;28;20051;-80
2022/12/01 07:54:16;;;;;;;92.82;34.83;;;5.30;99.90;;;;;;5095590;28;20044;-80
2022/12/01 07:56:42;;;;;;;78.80;33.35;;;5.30;99.90;;;;;;5094513;28;20040;-80
2022/12/01 07:59:08;;;;;;;80.53;32.33;;;5.30;99.90;;;;;;5095638;28;20051;-81
2022/12/01 08:01:34;;;;;;;87.15;34.90;;;5.30;99.90;;;;;;5095823;28;20070;-81
2022/12/01 08:03:59;;;;;;;87.93;32.28;;;5.30;99.90;;;;;;5095552;28;20439;-80
2022/12/01 08:06:25;;;;;;;85.80;34.28;;;5.30;99.90;;;;;;5095527;28;20040;-79
2022/12/01 08:08:51;;;;;;;76.77;31.33;;;5.30;99.90;;;;;;5095223;28;20074;-78
2022/12/01 08:11:22;;;;;;;86.32;32.28;;;5.30;99.90;;;;;;5095546;28;20582;-79
2022/12/01 08:13:49;;;;;;;81.70;32.60;;;5.40;99.90;;;;;;5091451;28;20043;-77
2022/12/01 08:16:19;;;;;;;81.07;32.30;;;5.40;99.90;;;;;;5094990;28;20062;-81
2022/12/01 08:18:45;;;;;;;77.53;32.33;;;5.40;99.90;;;;;;5095080;28;20036;-79
2022/12/01 08:21:14;;;;;;;82.75;32.63;;;5.40;99.90;;;;;;5095147;28;20050;-81
2022/12/01 08:23:41;;;;;;;64.82;28.30;;;5.40;99.90;;;;;;5096080;28;20048;-78
2022/12/01 08:26:13;;;;;;;83.15;31.30;;;5.50;99.90;;;;;;5095066;28;20123;-77
2022/12/01 08:28:38;;;;;;;73.63;31.38;;;5.40;99.90;;;;;;5094694;28;20052;-76
2022/12/01 08:31:16;;;;;;;79.63;32.45;;;5.50;99.90;;;;;;5094896;28;20052;-77
2022/12/01 08:33:41;;;;;;;76.68;29.40;;;5.40;99.90;;;;;;5094770;28;20544;-81
2022/12/01 08:36:07;;;;;;;70.97;29.02;;;5.50;99.90;;;;;;5094411;28;20048;-77
2022/12/01 08:38:33;;;;;;;76.40;31.30;;;5.50;99.90;;;;;;5094722;28;20040;-79
2022/12/01 08:41:02;;;;;;;69.63;29.25;;;5.50;99.90;;;;;;5094521;28;20055;-78
2022/12/01 08:43:28;;;;;;;85.55;31.30;;;5.50;99.90;;;;;;5094532;28;20044;-79
2022/12/01 08:45:57;;;;;;;77.10;32.03;;;5.50;99.90;;;;;;5094501;28;20051;-76
2022/12/01 08:48:23;;;;;;;79.68;31.08;;;5.50;99.90;;;;;;5094279;28;20036;-79
2022/12/01 08:50:48;;;;;;;72.25;30.83;;;5.50;99.90;;;;;;5094334;28;20051;-80
2022/12/01 08:53:14;;;;;;;77.50;31.67;;;5.60;99.90;;;;;;5093114;28;20515;-81
2022/12/01 08:55:40;;;;;;;71.28;30.67;;;5.60;99.90;;;;;;5093326;28;20150;-80
2022/12/01 08:58:05;;;;;;;83.63;30.75;;;5.80;99.90;;;;;;5093040;28;20591;-80
2022/12/01 09:00:31;;;;;;;72.95;30.42;;;5.70;99.90;;;;;;5094132;28;20487;-79
2022/12/01 09:02:56;;;;;;;72.53;28.95;;;5.70;99.90;;;;;;5094347;28;20048;-80
2022/12/01 09:05:22;;;;;;;86.47;32.17;;;5.70;99.90;;;;;;5093742;28;20131;-80
2022/12/01 09:08:29;;;;;;;77.82;31.10;;;5.70;99.90;;;;;;5093895;28;20044;-79
2022/12/01 09:10:33;;;;;;;70.60;30.80;;;5.70;99.90;;;;;;5094065;28;20058;-78
2022/12/01 09:12:59;;;;;;;76.43;31.38;;;5.70;99.90;;;;;;5093983;28;20466;-80
2022/12/01 09:15:24;;;;;;;73.72;31.35;;;5.80;99.90;;;;;;5093887;28;20388;-78
2022/12/01 09:17:50;;;;;;;80.13;32.20;;;5.70;99.90;;;;;;5093711;28;20059;-78
2022/12/01 09:20:16;;;;;;;71.55;29.77;;;5.70;99.90;;;;;;5094084;28;20051;-79
2022/12/01 09:22:41;;;;;;;79.43;30.23;;;5.70;99.90;;;;;;5094335;28;20048;-79
2022/12/01 09:25:13;;;;;;;75.40;29.40;;;5.80;99.90;;;;;;5093816;28;20047;-79
2022/12/01 09:27:39;;;;;;;77.93;30.70;;;5.80;99.90;;;;;;5094272;28;20052;-78
2022/12/01 09:30:05;;;;;;;68.50;29.73;;;5.80;99.90;;;;;;5075761;28;20054;-79
2022/12/01 09:32:30;;;;;;;73.80;28.90;;;5.80;99.90;;;;;;5093840;28;20123;-78
2022/12/01 09:34:56;;;;;;;72.35;29.58;;;6.30;99.90;;;;;;5093667;28;20133;-79
2022/12/01 09:37:22;;;;;;;70.63;29.27;;;5.90;99.90;;;;;;5093804;28;20495;-78
2022/12/01 09:39:47;;;;;;;76.28;29.73;;;5.90;99.90;;;;;;5093499;28;20090;-79
2022/12/01 09:42:17;;;;;;;74.75;29.42;;;5.90;99.90;;;;;;5093835;28;20097;-78
2022/12/01 09:44:42;;;;;;;69.00;30.77;;;5.80;99.90;;;;;;5093372;28;20488;-79
2022/12/01 09:47:23;;;;;;;72.88;28.80;;;5.90;99.90;;;;;;5093506;28;20040;-79
2022/12/01 09:50:03;;;;;;;71.32;29.17;;;5.90;99.90;;;;;;5093499;28;20042;-77
2022/12/01 09:52:49;;;;;;;74.80;29.17;;;5.90;99.90;;;;;;5093816;28;20344;-77
2022/12/01 09:55:18;;;;;;;70.38;29.48;;;5.90;99.90;;;;;;5091869;28;20052;-78
2022/12/01 09:57:47;;;;;;;72.72;29.70;;;6.00;99.90;;;;;;5093404;28;20044;-78
2022/12/01 10:00:34;;;;;;;70.20;29.35;;;5.60;99.90;;;;;;5093556;28;20051;-78
2022/12/01 10:03:29;;;;;;;72.50;29.83;;;6.00;99.90;;;;;;5092517;28;20392;-79
2022/12/01 10:06:09;;;;;;;74.97;29.75;;;6.10;99.90;;;;;;5093195;28;20127;-79
2022/12/01 10:08:40;;;;;;;68.90;28.67;;;6.00;99.90;;;;;;5093320;28;20123;-78
2022/12/01 10:11:27;;;;;;;67.35;27.92;;;6.00;99.90;;;;;;5093455;28;20048;-75
2022/12/01 10:13:53;;;;;;;65.45;28.17;;;6.00;99.90;;;;;;5096438;28;20402;-78
2022/12/01 10:16:27;;;;;;;62.85;28.45;;;6.90;99.90;;;;;;5096928;28;20123;-79
2022/12/01 10:19:06;;;;;;;74.45;28.80;;;6.10;99.90;;;;;;5096134;28;20438;-76
2022/12/01 10:22:12;;;;;;;69.57;29.00;;;6.10;99.90;;;;;;5097315;28;20131;-78
2022/12/01 10:25:10;;;;;;;68.40;28.17;;;6.10;99.90;;;;;;5097453;28;20052;-78
2022/12/01 10:27:35;;;;;;;70.38;28.00;;;6.20;99.90;;;;;;5081093;28;20060;-77
2022/12/01 10:30:07;;;;;;;66.45;28.02;;;6.20;99.90;;;;;;5096976;28;20052;-78
2022/12/01 10:32:47;;;;;;;62.17;26.65;;;6.20;99.90;;;;;;5097590;28;20058;-78
2022/12/01 10:35:17;;;;;;;67.63;28.35;;;6.20;99.90;;;;;;5096891;28;20491;-77
2022/12/01 10:37:44;;;;;;;67.10;29.40;;;6.20;99.90;;;;;;5096797;28;20605;-77
2022/12/01 10:40:14;;;;;;;65.70;28.02;;;7.00;99.90;;;;;;5097003;28;20044;-78
2022/12/01 10:42:48;;;;;;;61.00;26.88;;;6.30;99.90;;;;;;5097025;28;20044;-78
2022/12/01 10:45:14;;;;;;;56.08;26.98;;;6.30;99.90;;;;;;5096887;28;20101;-77
2022/12/01 10:48:08;;;;;;;54.55;25.85;;;6.30;99.90;;;;;;5096946;28;20040;-78
2022/12/01 10:50:35;;;;;;;54.60;25.02;;;6.30;99.90;;;;;;5096881;28;20549;-79
2022/12/01 10:53:01;;;;;;;63.97;27.73;;;6.30;99.90;;;;;;5096493;28;20036;-80
2022/12/01 10:55:34;;;;;;;50.78;24.83;;;6.30;99.90;;;;;;5095598;28;20055;-81
2022/12/01 10:58:05;;;;;;;65.63;27.23;;;6.30;99.90;;;;;;5096855;28;20047;-82
2022/12/01 11:00:37;;;;;;;55.33;25.23;;;6.40;99.90;;;;;;5097215;28;20434;-77
2022/12/01 11:03:03;;;;;;;54.53;23.05;;;6.40;99.90;;;;;;5096659;28;20044;-78
2022/12/01 11:05:34;;;;;;;53.63;23.33;;;6.40;99.90;;;;;;5096424;28;20130;-79
2022/12/01 11:08:00;;;;;;;58.97;26.02;;;6.40;99.90;;;;;;5095493;28;20091;-76
2022/12/01 11:10:30;;;;;;;56.72;25.35;;;6.30;99.90;;;;;;5096608;28;20088;-77
2022/12/01 11:12:57;;;;;;;49.92;24.45;;;6.40;99.90;;;;;;5096306;28;20442;-78
2022/12/01 11:15:29;;;;;;;60.92;25.58;;;6.40;99.90;;;;;;5096515;28;20036;-78
2022/12/01 11:18:19;;;;;;;61.25;26.83;;;6.50;99.90;;;;;;5096130;28;20131;-77
2022/12/01 11:20:44;;;;;;;52.05;23.77;;;6.50;99.90;;;;;;5096359;28;20058;-77
2022/12/01 11:23:28;;;;;;;46.70;22.75;;;6.50;99.90;;;;;;5096196;28;20040;-78
2022/12/01 11:26:02;;;;;;;52.35;24.63;;;6.50;99.90;;;;;;5094807;28;20113;-78
2022/12/01 11:28:28;;;;;;;51.80;22.88;;;6.50;99.90;;;;;;5095936;28;20400;-78
2022/12/01 11:31:01;;;;;;;52.45;23.98;;;6.50;99.90;;;;;;5095818;28;20541;-78
2022/12/01 11:33:28;;;;;;;50.95;22.95;;;6.50;99.90;;;;;;5096136;28;20051;-78
2022/12/01 11:35:54;;;;;;;49.03;21.65;;;6.50;99.90;;;;;;5095553;28;20392;-77
2022/12/01 11:38:29;;;;;;;44.83;22.45;;;6.50;99.90;;;;;;5096019;28;20070;-80
2022/12/01 11:40:56;;;;;;;48.65;24.10;;;6.50;99.90;;;;;;5095061;28;20388;-83
2022/12/01 11:43:33;;;;;;;54.38;23.58;;;6.40;99.90;;;;;;5100648;28;20040;-78
2022/12/01 11:46:02;;;;;;;46.88;22.40;;;6.50;99.90;;;;;;5095922;28;20048;-86
2022/12/01 11:48:30;;;;;;;53.15;23.08;;;6.60;99.90;;;;;;5077468;28;20044;-82
2022/12/01 11:51:05;;;;;;;44.95;22.80;;;6.60;99.90;;;;;;5094419;28;20126;-80
2022/12/01 11:53:38;;;;;;;48.47;23.15;;;6.80;99.90;;;;;;5095701;28;20044;-81
2022/12/01 11:56:14;;;;;;;46.40;22.08;;;6.50;99.90;;;;;;5095724;28;20040;-83
2022/12/01 11:58:42;;;;;;;51.92;23.73;;;6.80;99.90;;;;;;5094988;28;20059;-82
2022/12/01 12:01:46;;;;;;;44.53;22.63;;;6.80;99.90;;;;;;5095518;28;20052;-82
2022/12/01 12:04:29;;;;;;;41.97;22.00;;;6.80;99.90;;;;;;5095632;28;20048;-84
2022/12/01 12:07:29;;;;;;;51.25;23.50;;;6.80;99.90;;;;;;5095093;28;20092;-81
2022/12/01 12:10:22;;;;;;;44.88;23.40;;;6.90;99.90;;;;;;5077233;28;20048;-81
2022/12/01 12:12:47;;;;;;;47.17;23.60;;;6.80;99.90;;;;;;5095162;28;20471;-81
2022/12/01 12:15:22;;;;;;;42.42;20.88;;;6.80;99.90;;;;;;5095221;28;20062;-77
2022/12/01 12:18:07;;;;;;;46.63;22.88;;;6.80;99.90;;;;;;5094535;28;20040;-78
2022/12/01 12:21:04;;;;;;;46.58;21.88;;;6.70;99.90;;;;;;5095184;28;20079;-77
2022/12/01 12:23:45;;;;;;;48.55;23.13;;;6.70;99.90;;;;;;5090924;28;20052;-76
2022/12/01 12:26:40;;;;;;;48.97;23.45;;;7.60;99.90;;;;;;5094926;28;20052;-77
2022/12/01 12:29:35;;;;;;;47.92;23.73;;;6.70;99.90;;;;;;5094653;28;20064;-77
2022/12/01 12:32:26;;;;;;;46.38;23.02;;;6.70;99.90;;;;;;5095041;28;20089;-79
2022/12/01 12:35:08;;;;;;;47.50;24.00;;;6.70;99.90;;;;;;5094674;28;20118;-81
2022/12/01 12:37:59;;;;;;;49.30;23.42;;;6.70;99.90;;;;;;5093865;28;20079;-80
2022/12/01 12:40:49;;;;;;;47.70;22.40;;;6.70;99.90;;;;;;5078250;28;20413;-77
2022/12/01 12:43:38;;;;;;;46.70;22.90;;;6.70;99.90;;;;;;5095895;28;20122;-81
2022/12/01 12:46:10;;;;;;;47.08;23.40;;;6.60;99.90;;;;;;5094343;28;20118;-78
2022/12/01 12:49:13;;;;;;;46.58;23.20;;;7.00;99.90;;;;;;5094346;28;20101;-81
2022/12/01 12:51:45;;;;;;;42.30;22.33;;;6.60;99.90;;;;;;5095373;28;20131;-79
2022/12/01 12:54:11;;;;;;;48.10;23.42;;;6.60;99.90;;;;;;5094616;28;20038;-79
2022/12/01 12:56:39;;;;;;;42.15;21.70;;;6.60;99.90;;;;;;5094601;28;20119;-79
2022/12/01 12:59:22;;;;;;;47.53;22.58;;;6.60;99.90;;;;;;5094095;28;20040;-79